Impacts TAF Board
For situational awareness. Not to be used for flight planning purposes.
IDs:

KBWI - Baltimore-Washington, MD, US

Issued at 1435 UTC 23 Jan 2019
Updated at 1728 UTC 23 Jan 2019
Potential Impact None Slight Moderate High
Time1654Z 23/18Z 23/19Z 23/20Z 23/21Z 23/22Z 23/23Z 24/00Z 24/01Z 24/02Z 24/03Z 24/04Z 24/05Z 24/06Z>>
Type OBS PRVL PRVL PRVL PRVL PRVL PRVL PRVL PRVL PRVL PRVL PRVL PRVL PRVL
VIS 10 >6 >6 >6 >6 >6 >6 5 5 5 5 3 3 3
CIG 60 25 25 25 25 25 25 8 8 8 8 8 8 8
Cover BKN OVC OVC OVC OVC OVC OVC OVC OVC OVC OVC OVC OVC OVC
FltCat VFR MVFR MVFR MVFR MVFR MVFR MVFR IFR IFR IFR IFR IFR IFR IFR
WX -- -- -- -- -- -- -- -DZ -DZ -DZ -DZ -RA -RA -RA
WDir 200 180 180 180 180 180 180 180 180 180 180 170 170 170
WSpd 7 10 10 10 10 10 10 8 8 8 8 8 8 8
WGst -- 18 18 18 18 18 18 -- -- -- -- -- -- --
Raw TAF
KBWI 231435Z 2315/2418 18008G16KT P6SM BKN025 OVC035 WS020/20045KT
  FM231800 18010G18KT P6SM SCT008 OVC025 WS020/20050KT
  FM240000 18008KT 5SM -DZ BKN008 OVC015 WS020/19060KT
  FM240400 17008KT 3SM -RA BKN008 OVC015 WS020/19060KT
  FM240900 17010G18KT 3SM -RA BKN008 OVC015 WS020/20055KT
  FM241200 17012G22KT 2SM +RA SCT008 OVC025 WS020/20055KT
  FM241600 32010G20KT 6SM -SHRA SCT008 BKN025 OVC050


Raw METAR
KBWI 231654Z 20007KT 10SM FEW025 SCT035 BKN060 BKN250 07/M03 A3023 RMK AO2 SLP238 T00721033
KBWI 231554Z 23010KT 10SM FEW026 BKN036 BKN095 OVC250 06/M06 A3028 RMK AO2 SLP254 T00561056
KBWI 231454Z 21003KT 10SM SCT025 BKN034 BKN090 OVC250 03/M10 A3028 RMK AO2 SLP254 T00331100 58017

METAR Board
Radar Display
Forecast Discussion
For situational awareness. Not to be used for flight planning purposes.